Time;durP1;ratioP1;P1;durP2;ratioP2;P2;SDS_P1;SDS_P2;PMS_P1;PMS_P2;Temp;Humidity;BMP_temperature;BMP_pressure;BME280_temperature;BME280_humidity;BME280_pressure;Samples;Min_cycle;Max_cycle;Signal;HPM_P1;HPM_P2
2021/04/20 00:02:04;;;;;;;34.63;27.77;;;11.20;99.90;;;;;;5067877;28;20213;-56
2021/04/20 00:04:29;;;;;;;37.20;27.30;;;11.20;99.90;;;;;;5070599;28;20199;-56
2021/04/20 00:06:55;;;;;;;34.90;25.10;;;11.40;99.90;;;;;;5070619;28;20593;-57
2021/04/20 00:09:20;;;;;;;39.40;28.30;;;11.20;99.90;;;;;;5070731;28;20188;-56
2021/04/20 00:11:46;;;;;;;38.03;26.90;;;11.20;99.90;;;;;;5070387;28;20210;-56
2021/04/20 00:14:13;;;;;;;38.60;29.80;;;11.00;99.90;;;;;;5069828;28;20191;-58
2021/04/20 00:16:39;;;;;;;39.80;27.70;;;10.90;99.90;;;;;;5069821;28;20727;-57
2021/04/20 00:19:07;;;;;;;36.30;27.60;;;10.80;99.90;;;;;;5072845;28;20491;-56
2021/04/20 00:21:33;;;;;;;39.33;28.67;;;10.90;99.90;;;;;;5074039;28;20465;-57
2021/04/20 00:23:59;;;;;;;48.17;29.97;;;10.90;99.90;;;;;;5083094;28;20950;-57
2021/04/20 00:26:24;;;;;;;44.57;30.97;;;11.00;99.90;;;;;;5070055;28;20456;-56
2021/04/20 00:28:50;;;;;;;39.03;29.57;;;11.10;99.90;;;;;;5068416;28;20226;-56
2021/04/20 00:31:16;;;;;;;36.07;28.13;;;11.10;99.90;;;;;;5070044;28;20192;-56
2021/04/20 00:33:41;;;;;;;39.17;28.30;;;11.00;99.90;;;;;;5067777;28;21335;-56
2021/04/20 00:36:08;;;;;;;32.87;25.63;;;11.00;99.90;;;;;;5067439;28;20190;-56
2021/04/20 00:38:34;;;;;;;37.73;26.53;;;10.90;99.90;;;;;;5070312;28;20266;-56
2021/04/20 00:41:11;;;;;;;35.57;24.87;;;10.90;99.90;;;;;;5070765;28;20428;-55
2021/04/20 00:43:41;;;;;;;33.23;25.37;;;11.00;99.90;;;;;;5070495;28;20300;-57
2021/04/20 00:46:12;;;;;;;38.57;27.20;;;11.00;99.90;;;;;;5068340;28;20444;-56
2021/04/20 00:48:39;;;;;;;37.80;27.40;;;10.90;99.90;;;;;;5070569;28;20450;-56
2021/04/20 00:51:06;;;;;;;38.57;27.60;;;10.80;99.90;;;;;;5066159;28;21077;-57
2021/04/20 00:53:32;;;;;;;39.40;26.87;;;10.80;99.90;;;;;;5066891;28;20845;-57
2021/04/20 00:55:58;;;;;;;42.43;28.40;;;10.80;99.90;;;;;;5067062;28;20543;-56
2021/04/20 00:58:23;;;;;;;42.30;29.00;;;10.90;99.90;;;;;;5070108;28;20456;-56
2021/04/20 01:00:50;;;;;;;36.50;26.50;;;10.90;99.90;;;;;;5070090;28;20448;-57
2021/04/20 01:03:16;;;;;;;39.97;28.77;;;10.90;99.90;;;;;;5067642;28;20659;-56
2021/04/20 01:05:43;;;;;;;38.00;28.23;;;10.80;99.90;;;;;;5068970;28;20445;-56
2021/04/20 01:08:11;;;;;;;39.00;29.53;;;10.90;99.90;;;;;;5069877;28;20182;-56
2021/04/20 01:10:46;;;;;;;41.63;28.60;;;10.90;99.90;;;;;;5066981;28;20447;-57
2021/04/20 01:13:13;;;;;;;40.03;28.77;;;11.00;99.90;;;;;;5070366;28;20483;-57
2021/04/20 01:15:43;;;;;;;39.80;27.50;;;11.00;99.90;;;;;;5069825;28;20534;-57
2021/04/20 01:18:20;;;;;;;35.60;27.23;;;11.00;99.90;;;;;;5069860;28;20794;-56
2021/04/20 01:20:51;;;;;;;33.70;26.83;;;11.10;99.90;;;;;;5068763;28;20768;-56
2021/04/20 01:24:00;;;;;;;39.73;28.47;;;11.10;99.90;;;;;;5071548;28;21045;-57
2021/04/20 01:26:32;;;;;;;37.80;29.20;;;11.00;99.90;;;;;;5022322;28;20446;-57
2021/04/20 01:28:59;;;;;;;39.50;28.73;;;10.90;99.90;;;;;;5073353;28;20481;-56
2021/04/20 01:31:28;;;;;;;35.97;27.03;;;10.90;99.90;;;;;;5071070;28;20456;-56
2021/04/20 01:33:55;;;;;;;37.30;29.33;;;10.80;99.90;;;;;;5084763;28;20526;-57
2021/04/20 01:36:22;;;;;;;41.80;29.20;;;10.70;99.90;;;;;;5087469;28;20784;-58
2021/04/20 01:38:49;;;;;;;38.33;28.50;;;10.70;99.90;;;;;;5071510;28;20534;-57
2021/04/20 01:41:17;;;;;;;39.50;28.77;;;10.60;99.90;;;;;;5073749;28;20440;-56
2021/04/20 01:43:43;;;;;;;44.87;30.90;;;10.60;99.90;;;;;;5073561;28;20436;-56
2021/04/20 01:46:09;;;;;;;44.60;30.60;;;10.40;99.90;;;;;;5071027;28;20443;-55
2021/04/20 01:48:34;;;;;;;42.70;29.63;;;10.40;99.90;;;;;;5072146;28;20444;-57
2021/04/20 01:51:00;;;;;;;47.40;31.43;;;10.40;99.90;;;;;;5071725;28;20185;-55
2021/04/20 01:53:26;;;;;;;41.40;30.37;;;10.40;99.90;;;;;;5079315;28;20252;-55
2021/04/20 01:56:06;;;;;;;46.80;30.73;;;10.40;99.90;;;;;;5072912;28;20662;-57
2021/04/20 01:58:33;;;;;;;50.27;32.57;;;10.40;99.90;;;;;;5072022;28;20497;-56
2021/04/20 02:01:03;;;;;;;43.50;30.87;;;10.40;99.90;;;;;;5073204;28;20436;-57
2021/04/20 02:03:29;;;;;;;43.57;31.37;;;10.40;99.90;;;;;;5073404;28;20442;-55
2021/04/20 02:05:56;;;;;;;46.83;31.83;;;10.60;99.90;;;;;;5071298;28;20483;-57
2021/04/20 02:08:22;;;;;;;48.90;31.80;;;10.30;99.90;;;;;;5073596;28;20443;-56
2021/04/20 02:10:48;;;;;;;44.67;30.23;;;10.40;99.90;;;;;;5073254;28;21066;-56
2021/04/20 02:13:15;;;;;;;41.27;29.17;;;10.50;99.90;;;;;;5073398;28;20216;-57
2021/04/20 02:15:41;;;;;;;42.67;29.30;;;10.60;99.90;;;;;;5070701;28;20454;-56
2021/04/20 02:18:08;;;;;;;40.40;28.93;;;10.60;99.90;;;;;;5072971;28;20815;-54
2021/04/20 02:20:37;;;;;;;44.50;29.60;;;7.90;99.90;;;;;;5074866;28;20582;-57
2021/04/20 02:23:03;;;;;;;44.47;29.93;;;10.60;99.90;;;;;;5092914;28;20923;-56
2021/04/20 02:25:30;;;;;;;41.07;29.53;;;10.70;99.90;;;;;;5088374;28;20465;-57
2021/04/20 02:27:56;;;;;;;36.73;29.80;;;10.80;99.90;;;;;;5088546;28;20830;-56
2021/04/20 02:30:23;;;;;;;40.30;28.80;;;10.80;99.90;;;;;;5069169;28;20465;-56
2021/04/20 02:32:49;;;;;;;46.10;29.30;;;10.80;99.90;;;;;;5069278;28;20521;-56
2021/04/20 02:35:17;;;;;;;41.30;28.10;;;10.70;99.90;;;;;;5072283;28;20537;-55
2021/04/20 02:37:44;;;;;;;39.93;27.20;;;10.80;99.90;;;;;;5071193;28;20946;-56
2021/04/20 02:40:21;;;;;;;40.77;28.87;;;10.90;99.90;;;;;;5069139;28;20443;-56
2021/04/20 02:42:49;;;;;;;40.10;29.70;;;10.90;99.90;;;;;;5071514;28;20451;-55
2021/04/20 02:45:16;;;;;;;41.10;30.13;;;10.90;99.90;;;;;;5077183;28;20500;-56
2021/04/20 02:47:42;;;;;;;39.00;28.70;;;10.90;99.90;;;;;;5079167;28;20440;-55
2021/04/20 02:50:11;;;;;;;39.80;28.87;;;11.00;99.90;;;;;;5091073;28;20479;-55
2021/04/20 02:52:38;;;;;;;36.40;26.13;;;11.00;99.90;;;;;;5079921;28;20566;-55
2021/04/20 02:55:07;;;;;;;41.40;27.17;;;11.10;99.90;;;;;;5066170;28;20483;-56
2021/04/20 02:57:36;;;;;;;40.23;28.20;;;11.00;99.90;;;;;;5071088;28;20455;-56
2021/04/20 03:00:07;;;;;;;48.07;28.33;;;11.00;99.90;;;;;;5078457;28;20440;-55
2021/04/20 03:02:36;;;;;;;41.93;28.80;;;10.90;99.90;;;;;;5092365;28;20463;-55
2021/04/20 03:05:02;;;;;;;44.17;31.07;;;10.90;99.90;;;;;;5079436;28;20949;-55
2021/04/20 03:07:28;;;;;;;38.40;27.57;;;10.90;99.90;;;;;;5072075;28;20465;-55
2021/04/20 03:09:55;;;;;;;39.57;29.40;;;10.90;99.90;;;;;;5082629;28;20447;-55
2021/04/20 03:12:22;;;;;;;41.97;30.23;;;13.20;99.90;;;;;;5072604;28;20227;-56
2021/04/20 03:14:48;;;;;;;40.80;30.47;;;11.00;99.90;;;;;;5069502;28;20558;-55
2021/04/20 03:17:14;;;;;;;41.80;29.23;;;11.00;99.90;;;;;;5071997;28;20431;-56
2021/04/20 03:19:39;;;;;;;39.03;26.97;;;11.00;99.90;;;;;;5070867;28;20530;-55
2021/04/20 03:22:05;;;;;;;37.40;26.40;;;11.20;99.90;;;;;;5070504;28;20270;-56
2021/04/20 03:24:31;;;;;;;37.47;27.87;;;11.20;99.90;;;;;;5068200;28;20194;-56
2021/04/20 03:26:57;;;;;;;36.17;27.23;;;11.30;99.90;;;;;;5072540;28;20448;-57
2021/04/20 03:29:23;;;;;;;35.40;26.57;;;11.30;99.90;;;;;;5075802;28;20215;-55
2021/04/20 03:31:49;;;;;;;35.97;25.67;;;11.30;99.90;;;;;;5070554;28;20953;-55
2021/04/20 03:34:17;;;;;;;37.27;25.47;;;11.20;99.90;;;;;;5070320;28;20454;-56
2021/04/20 03:37:00;;;;;;;34.70;27.47;;;11.30;99.90;;;;;;5069596;28;20182;-56
2021/04/20 03:39:29;;;;;;;35.90;26.50;;;11.20;99.90;;;;;;5070167;28;20544;-55
2021/04/20 03:41:57;;;;;;;35.80;27.17;;;11.30;99.90;;;;;;5069816;28;20453;-56
2021/04/20 03:44:30;;;;;;;36.00;26.73;;;11.30;99.90;;;;;;5071356;28;20412;-56
2021/04/20 03:47:01;;;;;;;41.13;29.40;;;11.30;99.90;;;;;;5066367;28;20567;-56
2021/04/20 03:49:32;;;;;;;41.27;28.07;;;11.30;99.90;;;;;;5071566;28;20491;-56
2021/04/20 03:51:59;;;;;;;39.07;28.03;;;11.30;99.90;;;;;;5070323;28;20486;-55
2021/04/20 03:54:27;;;;;;;45.77;31.63;;;11.30;99.90;;;;;;5068161;28;20479;-57
2021/04/20 03:56:55;;;;;;;42.97;32.63;;;11.40;99.90;;;;;;5070893;28;20810;-56
2021/04/20 03:59:24;;;;;;;46.67;30.77;;;11.40;99.90;;;;;;5069414;28;20837;-59
2021/04/20 04:01:50;;;;;;;42.47;29.93;;;11.50;99.90;;;;;;5070584;28;20910;-63
2021/04/20 04:04:21;;;;;;;42.53;29.60;;;11.50;99.90;;;;;;5070863;28;20551;-62
2021/04/20 04:06:47;;;;;;;43.50;30.70;;;11.40;99.90;;;;;;5070946;28;20504;-63
2021/04/20 04:09:15;;;;;;;47.17;31.57;;;11.30;99.90;;;;;;5070964;28;20432;-62
2021/04/20 04:11:47;;;;;;;42.90;30.50;;;11.30;99.90;;;;;;5069945;28;20455;-63
2021/04/20 04:14:16;;;;;;;48.57;32.13;;;11.30;99.90;;;;;;5071234;28;20433;-62
2021/04/20 04:16:46;;;;;;;48.70;31.17;;;11.40;99.90;;;;;;5070842;28;21037;-58
2021/04/20 04:19:12;;;;;;;47.17;32.97;;;11.40;99.90;;;;;;5070611;28;20449;-59
2021/04/20 04:21:44;;;;;;;50.43;33.00;;;11.40;99.90;;;;;;5083369;28;20432;-59
2021/04/20 04:24:11;;;;;;;51.67;33.27;;;11.30;99.90;;;;;;5074479;28;20451;-58
2021/04/20 04:26:41;;;;;;;44.93;32.00;;;11.30;99.90;;;;;;5070549;28;20530;-58
2021/04/20 04:29:10;;;;;;;44.73;30.43;;;11.20;99.90;;;;;;5069595;28;20466;-61
2021/04/20 04:31:40;;;;;;;49.77;31.50;;;11.20;99.90;;;;;;5070256;28;20468;-58
2021/04/20 04:34:06;;;;;;;52.80;32.50;;;11.10;99.90;;;;;;5070063;28;20439;-59
2021/04/20 04:36:33;;;;;;;47.50;33.30;;;11.10;99.90;;;;;;5069981;28;20449;-60
2021/04/20 04:38:59;;;;;;;48.43;30.90;;;11.20;99.90;;;;;;5069328;28;21086;-61
2021/04/20 04:41:25;;;;;;;52.23;33.10;;;11.10;99.90;;;;;;5067570;28;20541;-59
2021/04/20 04:43:50;;;;;;;49.20;32.20;;;11.20;99.90;;;;;;5069076;28;20219;-61
2021/04/20 04:46:16;;;;;;;49.40;33.30;;;11.20;99.90;;;;;;5069761;28;20220;-59
2021/04/20 04:48:42;;;;;;;51.23;32.83;;;11.20;99.90;;;;;;5070179;28;20234;-58
2021/04/20 04:51:10;;;;;;;49.80;32.30;;;11.20;99.90;;;;;;5068619;28;20768;-59
2021/04/20 04:53:39;;;;;;;45.17;33.07;;;11.20;99.90;;;;;;5070029;28;20479;-59
2021/04/20 04:56:06;;;;;;;49.13;31.97;;;11.20;99.90;;;;;;5065883;28;20450;-61
2021/04/20 04:58:35;;;;;;;47.63;32.20;;;11.30;99.90;;;;;;5069765;28;20842;-59
2021/04/20 05:01:02;;;;;;;47.70;31.43;;;11.30;99.90;;;;;;5068764;28;20780;-59
2021/04/20 05:03:27;;;;;;;48.20;31.53;;;11.50;99.90;;;;;;5068630;28;20769;-60
2021/04/20 05:05:56;;;;;;;52.53;32.23;;;11.40;99.90;;;;;;5070080;28;20556;-59
2021/04/20 05:08:22;;;;;;;48.97;33.40;;;11.40;99.90;;;;;;5069769;28;20619;-60
2021/04/20 05:10:49;;;;;;;48.33;32.53;;;11.40;99.90;;;;;;5069786;28;20435;-60
2021/04/20 05:13:15;;;;;;;52.20;33.23;;;11.30;99.90;;;;;;5069805;28;20496;-59
2021/04/20 05:15:40;;;;;;;46.70;33.40;;;11.40;99.90;;;;;;5069195;28;20450;-60
2021/04/20 05:18:13;;;;;;;53.77;33.47;;;11.40;99.90;;;;;;5076398;28;20193;-59
2021/04/20 05:20:44;;;;;;;48.30;33.40;;;11.50;99.90;;;;;;5074241;28;20314;-58
2021/04/20 05:23:13;;;;;;;52.03;34.17;;;11.60;99.90;;;;;;5070277;28;20470;-58
2021/04/20 05:25:39;;;;;;;53.53;33.37;;;11.60;99.90;;;;;;5067976;28;20443;-59
2021/04/20 05:28:06;;;;;;;50.00;33.30;;;11.70;99.90;;;;;;5069510;28;20478;-59
2021/04/20 05:30:32;;;;;;;47.87;32.17;;;11.80;99.90;;;;;;5069354;28;20220;-59
2021/04/20 05:32:59;;;;;;;43.50;31.00;;;11.90;99.90;;;;;;5069364;28;20477;-58
2021/04/20 05:35:24;;;;;;;48.00;33.93;;;12.10;99.90;;;;;;5069745;28;20175;-59
2021/04/20 05:37:50;;;;;;;43.67;31.70;;;12.10;99.90;;;;;;5069091;28;20489;-59
2021/04/20 05:40:19;;;;;;;46.97;33.67;;;12.30;99.90;;;;;;5069332;28;20282;-59
2021/04/20 05:42:45;;;;;;;45.37;33.40;;;12.30;99.90;;;;;;5067229;28;20187;-59
2021/04/20 05:45:14;;;;;;;42.17;30.53;;;12.50;99.90;;;;;;5068076;28;20445;-58
2021/04/20 05:47:42;;;;;;;45.47;31.90;;;12.80;99.90;;;;;;5068883;28;20506;-58
2021/04/20 05:50:12;;;;;;;47.63;33.60;;;13.00;99.90;;;;;;5069714;28;20824;-59
2021/04/20 05:52:38;;;;;;;44.27;31.30;;;13.10;99.90;;;;;;5069392;28;20472;-59
2021/04/20 05:55:06;;;;;;;43.63;32.27;;;13.40;99.90;;;;;;5069333;28;20515;-58
2021/04/20 05:57:32;;;;;;;44.40;31.53;;;13.60;99.90;;;;;;5069236;28;20210;-58
2021/04/20 05:59:59;;;;;;;45.17;32.87;;;13.90;99.90;;;;;;5069213;28;20437;-60
2021/04/20 06:02:29;;;;;;;44.97;33.73;;;14.00;87.70;;;;;;5069283;28;20444;-61
2021/04/20 06:04:58;;;;;;;46.13;32.20;;;14.20;44.10;;;;;;5069742;28;20949;-59
2021/04/20 06:07:24;;;;;;;46.60;33.83;;;14.20;31.00;;;;;;5069342;28;20930;-59
2021/04/20 06:09:50;;;;;;;40.93;31.70;;;14.10;28.60;;;;;;5071653;28;20434;-60
2021/04/20 06:12:16;;;;;;;46.57;33.10;;;14.20;29.10;;;;;;5073037;28;20460;-59
2021/04/20 06:14:43;;;;;;;47.03;32.50;;;14.10;38.70;;;;;;5071366;28;20183;-60
2021/04/20 06:17:12;;;;;;;47.50;33.40;;;14.30;22.20;;;;;;5072699;28;20183;-59
2021/04/20 06:19:38;;;;;;;42.43;31.73;;;14.20;14.00;;;;;;5072733;28;20422;-58
2021/04/20 06:22:06;;;;;;;46.53;34.13;;;14.30;14.10;;;;;;5071816;28;20452;-59
2021/04/20 06:24:32;;;;;;;47.07;32.87;;;14.40;13.10;;;;;;5069650;28;20460;-58
2021/04/20 06:26:58;;;;;;;42.60;31.77;;;14.50;4.80;;;;;;5071888;28;20525;-58
2021/04/20 06:29:26;;;;;;;46.33;32.60;;;14.60;1.40;;;;;;5069678;28;20537;-60
2021/04/20 06:31:53;;;;;;;44.30;31.87;;;14.60;1.00;;;;;;5072408;28;20469;-59
2021/04/20 06:34:20;;;;;;;43.80;31.17;;;14.50;1.00;;;;;;5071438;28;20719;-60
2021/04/20 06:36:46;;;;;;;41.67;30.90;;;14.50;1.00;;;;;;5072689;28;20833;-59
2021/04/20 06:39:12;;;;;;;48.37;35.07;;;14.60;1.00;;;;;;5075073;28;20440;-60
2021/04/20 06:41:39;;;;;;;44.83;31.87;;;14.80;1.00;;;;;;5076164;28;20194;-60
2021/04/20 06:44:11;;;;;;;45.07;33.73;;;14.80;1.00;;;;;;5072212;28;20451;-60
2021/04/20 06:47:04;;;;;;;47.13;33.67;;;14.60;1.00;;;;;;5072446;28;20438;-59
2021/04/20 06:49:43;;;;;;;52.10;34.67;;;14.70;1.00;;;;;;5072551;28;20512;-59
2021/04/20 06:52:21;;;;;;;40.97;30.83;;;14.80;1.00;;;;;;5072562;28;20459;-60
2021/04/20 06:54:59;;;;;;;43.90;31.60;;;15.00;1.00;;;;;;5072649;28;20514;-61
2021/04/20 06:57:36;;;;;;;46.57;30.17;;;15.20;1.00;;;;;;5072288;28;20433;-61
2021/04/20 07:00:16;;;;;;;44.70;32.07;;;15.20;1.00;;;;;;5071748;28;20799;-59
2021/04/20 07:02:48;;;;;;;44.60;33.10;;;15.40;1.00;;;;;;5072448;28;20449;-59
2021/04/20 07:05:20;;;;;;;46.00;34.57;;;15.50;1.00;;;;;;5072308;28;20438;-59
2021/04/20 07:07:57;;;;;;;42.67;31.57;;;15.70;1.00;;;;;;5072390;28;20441;-58
2021/04/20 07:10:28;;;;;;;46.20;32.80;;;15.70;1.00;;;;;;5072079;28;20436;-59
2021/04/20 07:12:57;;;;;;;46.83;32.57;;;15.50;1.00;;;;;;5070470;28;20462;-59
2021/04/20 07:15:25;;;;;;;44.50;31.60;;;15.50;1.00;;;;;;5071493;28;21024;-58
2021/04/20 07:18:27;;;;;;;44.57;32.10;;;15.40;1.00;;;;;;5070329;28;20575;-59
2021/04/20 07:21:30;;;;;;;43.97;32.90;;;15.60;1.00;;;;;;5070427;28;20429;-60
2021/04/20 07:24:19;;;;;;;43.97;31.97;;;15.60;1.00;;;;;;5070705;28;20452;-59
2021/04/20 07:26:53;;;;;;;45.13;32.37;;;16.00;1.00;;;;;;5068340;28;20433;-59
2021/04/20 07:29:37;;;;;;;42.93;33.00;;;15.90;1.00;;;;;;5071504;28;20464;-60
2021/04/20 07:32:30;;;;;;;45.37;31.37;;;15.70;1.00;;;;;;5071812;28;20463;-60
2021/04/20 07:35:32;;;;;;;46.63;34.50;;;16.20;1.00;;;;;;5071574;28;20787;-59
2021/04/20 07:38:03;;;;;;;43.30;32.80;;;16.10;1.00;;;;;;5071291;28;20516;-59
2021/04/20 07:41:02;;;;;;;45.03;33.07;;;16.20;1.00;;;;;;5071427;28;20430;-59
2021/04/20 07:43:59;;;;;;;43.40;33.13;;;16.10;1.00;;;;;;5040375;28;20442;-59
2021/04/20 07:46:38;;;;;;;41.73;32.00;;;16.00;1.00;;;;;;5069808;28;20444;-61
2021/04/20 07:49:23;;;;;;;40.23;31.27;;;15.80;1.00;;;;;;5091895;28;20892;-59
2021/04/20 07:52:06;;;;;;;40.87;30.70;;;15.50;1.00;;;;;;5071018;28;20946;-59
2021/04/20 07:54:44;;;;;;;42.30;32.57;;;15.50;1.00;;;;;;5071470;28;20440;-61
2021/04/20 07:57:24;;;;;;;40.47;32.57;;;15.60;1.00;;;;;;5071497;28;20434;-60
2021/04/20 07:59:53;;;;;;;41.80;31.77;;;15.80;1.00;;;;;;5069964;28;20444;-59
2021/04/20 08:02:35;;;;;;;44.03;32.27;;;16.00;1.00;;;;;;5071222;28;20754;-60
2021/04/20 08:05:08;;;;;;;44.90;32.77;;;16.10;1.00;;;;;;5070981;28;20787;-59
2021/04/20 08:07:49;;;;;;;41.20;31.57;;;16.40;1.00;;;;;;5071216;28;20448;-60
2021/04/20 08:10:15;;;;;;;43.57;32.40;;;16.50;1.00;;;;;;5069955;28;20486;-60
2021/04/20 08:13:18;;;;;;;42.37;33.47;;;16.70;1.00;;;;;;5071471;28;20892;-60
2021/04/20 08:15:51;;;;;;;40.50;30.77;;;16.90;1.00;;;;;;5069529;28;20521;-60
2021/04/20 08:18:32;;;;;;;39.70;31.80;;;17.00;1.00;;;;;;5068436;28;21231;-60
2021/04/20 08:20:59;;;;;;;40.30;31.27;;;16.90;1.00;;;;;;5070154;28;20437;-59
2021/04/20 08:23:27;;;;;;;38.67;30.33;;;17.10;1.00;;;;;;5070617;28;20445;-61
2021/04/20 08:25:56;;;;;;;40.10;31.00;;;17.00;1.00;;;;;;5070230;28;20918;-59
2021/04/20 08:28:44;;;;;;;37.90;30.97;;;16.70;1.00;;;;;;5070577;28;20465;-59
2021/04/20 08:31:24;;;;;;;42.97;31.73;;;16.30;1.00;;;;;;5068681;28;20453;-59
2021/04/20 08:33:57;;;;;;;39.53;30.70;;;15.70;1.00;;;;;;5075111;28;20489;-59
2021/04/20 08:36:57;;;;;;;41.53;31.77;;;15.70;1.00;;;;;;5088556;28;20441;-60
2021/04/20 08:39:32;;;;;;;38.33;30.43;;;16.10;1.00;;;;;;5069064;28;20429;-60
2021/04/20 08:42:07;;;;;;;39.93;30.13;;;16.60;1.00;;;;;;5070538;28;20841;-60
2021/04/20 08:44:46;;;;;;;40.93;32.83;;;17.00;1.00;;;;;;5070452;28;20478;-60
2021/04/20 08:47:36;;;;;;;40.77;31.97;;;17.20;1.00;;;;;;5070011;28;20491;-60
2021/04/20 08:50:12;;;;;;;37.57;30.10;;;17.20;1.00;;;;;;5068930;28;20433;-60
2021/04/20 08:52:55;;;;;;;39.80;30.77;;;16.70;1.00;;;;;;5069755;28;20468;-60
2021/04/20 08:55:28;;;;;;;37.83;30.03;;;16.40;1.00;;;;;;5070293;28;20954;-59
2021/04/20 08:58:04;;;;;;;36.40;30.00;;;16.30;1.00;;;;;;5070160;28;20426;-60
2021/04/20 09:01:10;;;;;;;42.03;31.20;;;16.20;1.00;;;;;;5070128;28;20429;-59
2021/04/20 09:03:52;;;;;;;41.30;30.47;;;16.40;1.00;;;;;;5060224;28;20795;-59
2021/04/20 09:06:49;;;;;;;39.73;31.50;;;16.60;1.00;;;;;;5070099;28;20934;-59
2021/04/20 09:09:18;;;;;;;37.10;28.90;;;17.10;1.00;;;;;;5069807;28;20436;-59
2021/04/20 09:11:56;;;;;;;34.40;28.17;;;17.50;1.00;;;;;;5069770;28;20429;-59
2021/04/20 09:14:35;;;;;;;36.47;28.13;;;17.80;1.00;;;;;;5070042;28;20440;-61
2021/04/20 09:17:08;;;;;;;36.93;30.43;;;18.10;1.00;;;;;;5069927;28;20888;-59
2021/04/20 09:19:56;;;;;;;35.70;28.87;;;18.40;1.00;;;;;;5069783;28;20465;-60
2021/04/20 09:22:50;;;;;;;34.53;28.93;;;18.50;1.00;;;;;;5068342;28;20441;-60
2021/04/20 09:25:27;;;;;;;36.30;28.80;;;18.60;1.00;;;;;;5066468;28;20557;-59
2021/04/20 09:28:37;;;;;;;36.20;29.17;;;18.40;1.00;;;;;;5069708;28;20475;-60
2021/04/20 09:31:11;;;;;;;37.67;30.50;;;18.70;1.00;;;;;;5077524;28;20455;-60
2021/04/20 09:33:55;;;;;;;35.03;30.90;;;19.20;1.00;;;;;;5089907;28;20432;-61
2021/04/20 09:36:22;;;;;;;33.83;28.13;;;19.50;1.00;;;;;;5090115;28;20522;-60
2021/04/20 09:38:50;;;;;;;33.57;29.40;;;19.60;1.00;;;;;;5090327;28;20432;-60
2021/04/20 09:41:22;;;;;;;33.10;27.97;;;19.60;1.00;;;;;;5083673;28;20441;-61
2021/04/20 09:43:58;;;;;;;32.57;27.37;;;19.60;1.00;;;;;;5069107;28;20441;-61
2021/04/20 09:46:38;;;;;;;33.13;27.10;;;19.60;1.00;;;;;;5073866;28;20444;-59
2021/04/20 09:49:30;;;;;;;30.67;26.87;;;19.70;1.00;;;;;;5073339;28;20836;-59
2021/04/20 09:52:01;;;;;;;28.27;25.20;;;19.90;1.00;;;;;;5073600;28;20453;-60
2021/04/20 09:54:44;;;;;;;30.40;25.27;;;20.10;1.00;;;;;;5055520;28;20923;-58
2021/04/20 09:57:13;;;;;;;28.03;25.07;;;20.20;1.00;;;;;;5073584;28;20903;-60
2021/04/20 09:59:44;;;;;;;29.63;26.17;;;20.50;1.00;;;;;;5071962;28;20469;-60
2021/04/20 10:02:28;;;;;;;29.07;25.93;;;19.90;1.00;;;;;;5073640;28;20548;-61
2021/04/20 10:05:19;;;;;;;28.23;25.03;;;19.90;1.00;;;;;;5073667;28;20462;-61
2021/04/20 10:08:02;;;;;;;33.03;26.90;;;20.00;1.00;;;;;;5073405;28;20429;-61
2021/04/20 10:10:52;;;;;;;29.43;25.10;;;20.10;1.00;;;;;;5073153;28;20440;-60
2021/04/20 10:13:36;;;;;;;28.33;24.90;;;20.50;1.00;;;;;;5072879;28;20461;-60
2021/04/20 10:16:21;;;;;;;29.80;26.63;;;20.50;1.00;;;;;;5073166;28;20445;-59
2021/04/20 10:19:19;;;;;;;30.87;26.13;;;20.20;1.00;;;;;;5073062;28;20438;-60
2021/04/20 10:21:57;;;;;;;30.20;24.70;;;19.30;1.00;;;;;;5072349;28;20812;-59
2021/04/20 10:24:25;;;;;;;28.23;25.07;;;18.50;1.00;;;;;;5073435;28;20447;-59
2021/04/20 10:27:11;;;;;;;29.47;26.27;;;19.30;1.00;;;;;;5072947;28;20436;-60
2021/04/20 10:29:43;;;;;;;28.30;25.13;;;19.40;1.00;;;;;;5073111;28;20781;-60
2021/04/20 10:32:31;;;;;;;28.93;25.83;;;19.80;1.00;;;;;;5072919;28;20479;-58
2021/04/20 10:34:59;;;;;;;24.77;22.00;;;19.60;1.00;;;;;;5072765;28;21042;-62
2021/04/20 10:37:38;;;;;;;27.40;22.33;;;19.50;1.00;;;;;;5073124;28;20429;-60
2021/04/20 10:40:09;;;;;;;28.03;25.07;;;19.60;1.00;;;;;;5072841;28;20767;-59
2021/04/20 10:42:37;;;;;;;28.17;25.20;;;19.60;1.00;;;;;;5070766;28;20495;-60
2021/04/20 10:45:07;;;;;;;25.50;22.77;;;19.60;1.00;;;;;;5071287;28;20675;-59
2021/04/20 10:47:36;;;;;;;26.13;23.33;;;19.70;1.00;;;;;;5072549;28;20435;-59
2021/04/20 10:50:04;;;;;;;26.00;23.23;;;20.40;1.00;;;;;;5071299;28;20819;-60
2021/04/20 10:52:36;;;;;;;25.33;22.20;;;20.70;1.00;;;;;;5072606;28;20547;-59
2021/04/20 10:55:10;;;;;;;25.93;22.50;;;20.30;1.00;;;;;;5072138;28;20430;-59
2021/04/20 10:57:39;;;;;;;24.93;22.13;;;19.80;1.00;;;;;;5072407;28;21021;-61
2021/04/20 11:00:06;;;;;;;23.30;20.80;;;19.80;1.00;;;;;;5068805;28;20446;-59
2021/04/20 11:02:36;;;;;;;24.87;21.87;;;19.90;1.00;;;;;;5072312;28;20448;-59
2021/04/20 11:05:04;;;;;;;25.90;23.23;;;20.00;1.00;;;;;;5072048;28;21058;-60
2021/04/20 11:07:39;;;;;;;24.97;22.43;;;20.10;1.00;;;;;;5072178;28;20452;-60
2021/04/20 11:10:08;;;;;;;24.40;21.83;;;20.30;1.00;;;;;;5072198;28;20444;-59
2021/04/20 11:12:56;;;;;;;26.13;23.23;;;20.30;1.00;;;;;;5071861;28;20472;-59
2021/04/20 11:15:28;;;;;;;28.97;23.10;;;19.90;1.00;;;;;;5070847;28;20993;-59
2021/04/20 11:17:54;;;;;;;26.43;23.67;;;;;;;;;;5072298;28;20437;-59
2021/04/20 11:20:37;;;;;;;23.97;21.50;;;20.20;1.00;;;;;;5072368;28;20465;-59
2021/04/20 11:23:14;;;;;;;24.10;21.50;;;20.30;1.00;;;;;;5070509;28;20437;-60
2021/04/20 11:25:58;;;;;;;21.97;19.67;;;19.90;1.00;;;;;;5070569;28;20854;-59
2021/04/20 11:28:45;;;;;;;23.87;21.00;;;19.70;1.00;;;;;;5071631;28;20469;-60
2021/04/20 11:31:29;;;;;;;24.50;22.10;;;20.40;1.00;;;;;;5074259;28;20514;-59
2021/04/20 11:34:31;;;;;;;21.60;19.30;;;20.30;1.00;;;;;;5071402;28;20646;-60
2021/04/20 11:36:57;;;;;;;24.23;21.10;;;20.10;1.00;;;;;;5040040;28;21042;-59
2021/04/20 11:39:28;;;;;;;24.50;22.00;;;19.90;1.00;;;;;;5071770;28;20509;-60
2021/04/20 11:42:02;;;;;;;24.03;21.53;;;19.50;1.00;;;;;;5071651;28;20176;-59
2021/04/20 11:44:40;;;;;;;24.87;22.27;;;19.40;1.00;;;;;;5074392;28;20441;-60
2021/04/20 11:47:08;;;;;;;23.10;20.70;;;19.10;1.00;;;;;;5091936;28;20519;-59
2021/04/20 11:49:36;;;;;;;22.33;20.13;;;19.00;1.00;;;;;;5090657;28;20923;-61
2021/04/20 11:52:02;;;;;;;22.30;19.90;;;19.10;1.00;;;;;;5070549;28;20445;-59
2021/04/20 11:54:35;;;;;;;22.87;20.60;;;19.70;1.00;;;;;;5082297;28;20430;-60
2021/04/20 11:57:03;;;;;;;24.10;21.10;;;19.60;1.00;;;;;;5070350;28;20442;-60
2021/04/20 11:59:30;;;;;;;23.13;20.83;;;19.50;1.00;;;;;;5081788;28;20771;-59
2021/04/20 12:01:57;;;;;;;22.77;20.37;;;19.50;1.00;;;;;;5086201;28;20457;-59
2021/04/20 12:04:28;;;;;;;19.77;17.77;;;19.60;1.00;;;;;;5071245;28;20443;-60
2021/04/20 12:06:56;;;;;;;22.47;20.33;;;19.50;1.00;;;;;;5069161;28;20422;-59
2021/04/20 12:09:24;;;;;;;23.23;20.93;;;19.90;1.00;;;;;;5070934;28;20787;-59
2021/04/20 12:11:51;;;;;;;24.67;21.80;;;19.90;1.00;;;;;;5070974;28;20873;-61
2021/04/20 12:14:23;;;;;;;24.77;22.07;;;19.80;1.00;;;;;;5078800;28;20429;-59
2021/04/20 12:16:50;;;;;;;24.03;21.60;;;19.90;1.00;;;;;;5074287;28;20943;-59
2021/04/20 12:19:21;;;;;;;25.30;20.97;;;20.20;1.00;;;;;;5070856;28;20427;-60
2021/04/20 12:21:51;;;;;;;24.30;21.73;;;20.50;1.00;;;;;;5071063;28;20891;-61
2021/04/20 12:24:21;;;;;;;25.77;23.07;;;20.70;1.00;;;;;;5070475;28;20446;-61
2021/04/20 12:26:54;;;;;;;23.50;21.20;;;21.00;1.00;;;;;;5090218;28;20439;-59
2021/04/20 12:29:26;;;;;;;23.73;21.53;;;21.00;1.00;;;;;;5080890;28;20459;-62
2021/04/20 12:31:52;;;;;;;25.60;23.13;;;20.80;1.00;;;;;;5070616;28;20449;-60
2021/04/20 12:34:28;;;;;;;21.87;19.67;;;20.70;1.00;;;;;;5069454;28;20444;-60
2021/04/20 12:37:02;;;;;;;25.53;22.83;;;20.20;1.00;;;;;;5070758;28;20437;-60
2021/04/20 12:39:31;;;;;;;26.97;23.23;;;20.00;1.00;;;;;;5073619;28;20529;-59
2021/04/20 12:42:00;;;;;;;26.00;23.43;;;20.50;1.00;;;;;;5068469;28;20449;-61
2021/04/20 12:44:34;;;;;;;24.73;22.13;;;20.40;1.00;;;;;;5069505;28;20447;-61
2021/04/20 12:47:00;;;;;;;27.47;24.57;;;20.20;1.00;;;;;;5070407;28;20458;-60
2021/04/20 12:49:26;;;;;;;25.67;23.23;;;20.30;1.00;;;;;;5067975;28;20927;-59
2021/04/20 12:51:52;;;;;;;26.17;22.57;;;19.90;1.00;;;;;;5070363;28;20451;-60
2021/04/20 12:54:20;;;;;;;24.80;22.23;;;20.20;1.00;;;;;;5069658;28;20183;-59
2021/04/20 12:56:51;;;;;;;24.43;21.90;;;20.60;1.00;;;;;;5070189;28;20434;-60
2021/04/20 12:59:23;;;;;;;24.37;21.87;;;20.80;1.00;;;;;;5068944;28;21124;-59